Time;durP1;ratioP1;P1;durP2;ratioP2;P2;SDS_P1;SDS_P2;PMS_P1;PMS_P2;Temp;Humidity;BMP_temperature;BMP_pressure;BME280_temperature;BME280_humidity;BME280_pressure;Samples;Min_cycle;Max_cycle;Signal;HPM_P1;HPM_P2
2023/03/14 00:01:01;;;;;;;25.63;6.32;;;;;;;;;;4925561;29;20514;-84
2023/03/14 00:03:29;;;;;;;24.45;5.35;;;;;;;;;;4932583;29;20416;-83
2023/03/14 00:05:56;;;;;;;25.85;5.40;;;;;;;;;;4928752;29;20446;-81
2023/03/14 00:08:24;;;;;;;22.02;4.88;;;;;;;;;;4917622;29;20920;-83
2023/03/14 00:10:50;;;;;;;22.52;5.28;;;;;;;;;;4930426;29;20436;-83
2023/03/14 00:13:19;;;;;;;24.73;5.25;;;;;;;;;;4915551;29;20450;-83
2023/03/14 00:15:52;;;;;;;21.67;5.15;;;;;;;;;;4906210;29;20423;-85
2023/03/14 00:18:39;;;;;;;26.20;5.03;;;;;;;;;;4927978;29;20418;-84
2023/03/14 00:21:05;;;;;;;19.92;4.65;;;;;;;;;;4917190;29;20420;-84
2023/03/14 00:23:41;;;;;;;22.63;5.00;;;;;;;;;;4918277;29;20468;-85
2023/03/14 00:26:26;;;;;;;18.60;5.05;;;;;;;;;;4905106;29;20432;-85
2023/03/14 00:29:02;;;;;;;23.30;5.32;;;;;;;;;;4927381;29;21001;-85
2023/03/14 00:31:35;;;;;;;26.58;5.65;;;;;;;;;;4899356;29;20445;-85
2023/03/14 00:34:07;;;;;;;20.02;4.82;;;;;;;;;;4908294;29;20526;-85
2023/03/14 00:36:36;;;;;;;28.17;5.40;;;;;;;;;;4912970;29;20421;-85
2023/03/14 00:39:03;;;;;;;22.37;5.47;;;;;;;;;;4915021;29;20822;-85
2023/03/14 00:41:34;;;;;;;28.05;5.85;;;;;;;;;;4902061;29;20491;-85
2023/03/14 00:44:12;;;;;;;25.83;5.60;;;;;;;;;;4915205;29;20447;-85
2023/03/14 00:47:07;;;;;;;24.15;5.32;;;;;;;;;;4928410;29;20436;-85
2023/03/14 00:49:46;;;;;;;23.20;5.25;;;;;;;;;;4912653;29;20436;-84
2023/03/14 00:52:20;;;;;;;26.17;5.35;;;;;;;;;;4929546;29;20792;-84
2023/03/14 00:54:55;;;;;;;17.20;4.88;;;;;;;;;;4915261;29;20509;-85
2023/03/14 00:57:42;;;;;;;15.38;4.47;;;;;;;;;;4913766;29;20561;-84
2023/03/14 01:00:12;;;;;;;23.85;4.97;;;;;;;;;;4931129;29;20437;-85
2023/03/14 01:02:42;;;;;;;17.63;4.45;;;;;;;;;;4913581;29;20433;-85
2023/03/14 01:05:11;;;;;;;15.13;4.20;;;;;;;;;;4906295;29;20423;-84
2023/03/14 01:07:45;;;;;;;15.75;4.18;;;;;;;;;;4914630;29;20494;-84
2023/03/14 01:10:23;;;;;;;22.93;5.17;;;;;;;;;;4914699;29;20427;-85
2023/03/14 01:13:16;;;;;;;19.30;4.25;;;;;;;;;;4912786;29;20443;-84
2023/03/14 01:15:53;;;;;;;15.73;4.25;;;;;;;;;;4895326;29;20454;-83
2023/03/14 01:18:29;;;;;;;13.90;4.10;;;;;;;;;;4896112;29;20519;-83
2023/03/14 01:21:14;;;;;;;23.05;4.90;;;;;;;;;;4915461;29;20494;-84
2023/03/14 01:23:43;;;;;;;21.05;4.07;;;;;;;;;;4898952;29;20502;-84
2023/03/14 01:26:18;;;;;;;17.08;4.07;;;;;;;;;;4889311;29;20428;-83
2023/03/14 01:28:57;;;;;;;17.92;4.05;;;;;;;;;;4925608;29;20443;-83
2023/03/14 01:31:37;;;;;;;;;;;;;;;;;;;;;
2023/03/14 01:34:05;;;;;;;14.60;3.88;;;;;;;;;;4930667;29;20439;-83
2023/03/14 01:36:41;;;;;;;17.10;3.70;;;;;;;;;;4931502;29;20424;-83
2023/03/14 01:39:20;;;;;;;15.80;3.63;;;;;;;;;;4928602;29;20811;-84
2023/03/14 01:42:08;;;;;;;15.67;3.70;;;;;;;;;;4903626;29;20506;-84
2023/03/14 01:44:56;;;;;;;13.05;3.75;;;;;;;;;;4899269;29;20504;-84
2023/03/14 01:47:23;;;;;;;15.20;3.42;;;;;;;;;;4914825;29;20439;-83
2023/03/14 01:50:18;;;;;;;17.80;4.30;;;;;;;;;;4880044;29;20444;-83
2023/03/14 01:53:00;;;;;;;17.92;4.10;;;;;;;;;;4859507;29;20462;-84
2023/03/14 01:55:26;;;;;;;17.15;3.88;;;;;;;;;;4893870;29;20959;-85
2023/03/14 01:58:19;;;;;;;15.98;4.03;;;;;;;;;;4868779;29;20482;-85
2023/03/14 02:01:11;;;;;;;13.88;3.00;;;;;;;;;;4845904;29;20480;-85
2023/03/14 02:03:55;;;;;;;16.85;3.50;;;;;;;;;;4841498;29;20473;-85
2023/03/14 02:06:32;;;;;;;16.48;3.45;;;;;;;;;;4891616;29;20788;-84
2023/03/14 02:09:21;;;;;;;11.50;2.80;;;10.30;99.90;;;;;;4861692;29;20846;-84
2023/03/14 02:11:59;;;;;;;14.88;3.40;;;;;;;;;;4898354;29;20444;-84
2023/03/14 02:14:30;;;;;;;16.00;3.47;;;;;;;;;;4870547;29;20434;-84
2023/03/14 02:17:08;;;;;;;15.43;3.00;;;;;;;;;;4870415;29;20428;-85
2023/03/14 02:19:40;;;;;;;15.38;3.30;;;;;;;;;;4886845;29;20785;-84
2023/03/14 02:22:38;;;;;;;14.25;3.40;;;;;;;;;;4906621;29;20788;-84
2023/03/14 02:25:26;;;;;;;13.98;3.22;;;;;;;;;;4825260;29;20439;-84
2023/03/14 02:27:55;;;;;;;16.77;3.37;;;;;;;;;;4826181;29;20468;-84
2023/03/14 02:30:34;;;;;;;13.02;3.38;;;;;;;;;;4890002;29;20465;-84
2023/03/14 02:33:07;;;;;;;11.45;2.95;;;;;;;;;;4889767;29;20471;-85
2023/03/14 02:35:39;;;;;;;15.03;3.20;;;;;;;;;;4900577;29;20497;-84
2023/03/14 02:38:11;;;;;;;10.80;3.17;;;;;;;;;;4916780;29;20419;-85
2023/03/14 02:40:37;;;;;;;10.02;3.10;;;;;;;;;;4921076;29;20437;-85
2023/03/14 02:43:03;;;;;;;13.18;3.42;;;;;;;;;;4875913;29;20867;-85
2023/03/14 02:45:36;;;;;;;10.85;2.90;;;;;;;;;;4898453;29;21221;-85
2023/03/14 02:48:08;;;;;;;10.88;3.45;;;;;;;;;;4917372;29;20974;-82
2023/03/14 02:50:35;;;;;;;14.68;3.70;;;;;;;;;;4925423;29;20831;-82
2023/03/14 02:53:06;;;;;;;14.25;3.83;;;;;;;;;;4935397;29;20419;-82
2023/03/14 02:55:32;;;;;;;11.53;3.27;;;;;;;;;;4932919;29;20780;-82
2023/03/14 02:58:20;;;;;;;14.10;3.50;;;;;;;;;;4919948;29;20403;-83
2023/03/14 03:00:49;;;;;;;15.87;4.00;;;;;;;;;;4917962;29;20431;-82
2023/03/14 03:03:16;;;;;;;11.00;3.60;;;;;;;;;;4935037;29;20422;-81
2023/03/14 03:05:52;;;;;;;14.82;4.18;;;;;;;;;;4909220;29;20508;-81
2023/03/14 03:08:47;;;;;;;14.88;4.30;;;;;;;;;;4900255;29;20930;-81
2023/03/14 03:11:13;;;;;;;13.73;3.83;;;;;;;;;;4916972;29;20505;-82
2023/03/14 03:13:40;;;;;;;16.10;4.32;;;;;;;;;;4913007;29;20431;-81
2023/03/14 03:16:06;;;;;;;15.40;4.75;;;;;;;;;;4885743;29;20413;-84
2023/03/14 03:18:32;;;;;;;13.85;4.05;;;;;;;;;;4885390;29;20445;-83
2023/03/14 03:21:03;;;;;;;14.55;4.40;;;;;;;;;;4928960;29;20465;-82
2023/03/14 03:23:30;;;;;;;16.15;4.13;;;;;;;;;;4901779;29;20425;-81
2023/03/14 03:25:56;;;;;;;16.40;4.75;;;;;;;;;;4921273;29;20992;-82
2023/03/14 03:28:22;;;;;;;15.07;4.78;;;;;;;;;;4936686;29;20499;-83
2023/03/14 03:30:48;;;;;;;15.05;5.00;;;;;;;;;;4932398;29;20468;-84
2023/03/14 03:33:14;;;;;;;13.65;4.97;;;;;;;;;;4923994;29;20441;-82
2023/03/14 03:35:48;;;;;;;16.73;5.20;;;;;;;;;;4918897;29;20434;-81
2023/03/14 03:38:15;;;;;;;17.70;5.68;;;;;;;;;;4919014;29;20494;-81
2023/03/14 03:40:41;;;;;;;17.58;5.63;;;;;;;;;;4933499;29;20435;-81
2023/03/14 03:43:07;;;;;;;21.08;6.22;;;;;;;;;;4934321;29;20442;-82
2023/03/14 03:45:33;;;;;;;15.13;5.40;;;;;;;;;;4926721;29;20919;-81
2023/03/14 03:47:59;;;;;;;19.75;6.10;;;;;;;;;;4918253;29;20451;-81
2023/03/14 03:50:27;;;;;;;19.45;5.68;;;;;;;;;;4915179;29;20511;-81
2023/03/14 03:52:53;;;;;;;17.35;5.78;;;;;;;;;;4917774;29;20494;-81
2023/03/14 03:55:20;;;;;;;21.60;6.03;;;;;;;;;;4914445;29;20429;-81
2023/03/14 03:57:46;;;;;;;21.77;6.13;;;;;;;;;;4928819;29;20427;-81
2023/03/14 04:00:12;;;;;;;18.37;6.37;;;;;;;;;;4932234;29;20711;-81
2023/03/14 04:02:38;;;;;;;25.23;7.20;;;;;;;;;;4885137;29;20433;-81
2023/03/14 04:05:05;;;;;;;22.98;6.72;;;;;;;;;;4906364;29;20433;-81
2023/03/14 04:07:34;;;;;;;19.63;6.53;;;;;;;;;;4931071;29;21007;-82
2023/03/14 04:10:00;;;;;;;22.38;6.82;;;;;;;;;;4933277;29;20480;-80
2023/03/14 04:12:26;;;;;;;21.20;6.63;;;;;;;;;;4932096;29;20940;-80
2023/03/14 04:14:52;;;;;;;22.30;7.32;;;;;;;;;;4933184;29;20423;-80
2023/03/14 04:17:18;;;;;;;23.67;7.63;;;;;;;;;;4917028;29;20423;-80
2023/03/14 04:19:44;;;;;;;21.15;7.78;;;;;;;;;;4915908;29;20486;-80
2023/03/14 04:22:11;;;;;;;24.20;7.82;;;;;;;;;;4911498;29;20438;-81
2023/03/14 04:24:37;;;;;;;26.38;8.93;;;;;;;;;;4933977;29;20874;-82
2023/03/14 04:27:03;;;;;;;22.92;9.25;;;;;;;;;;4917556;29;20415;-81
2023/03/14 04:29:29;;;;;;;25.70;9.50;;;;;;;;;;4917642;29;20457;-82
2023/03/14 04:31:55;;;;;;;26.95;9.38;;;;;;;;;;4933098;29;20439;-81
2023/03/14 04:34:21;;;;;;;23.70;9.45;;;;;;;;;;4931448;29;21052;-81
2023/03/14 04:36:47;;;;;;;25.67;9.77;;;;;;;;;;4902168;29;20407;-83
2023/03/14 04:39:13;;;;;;;24.48;10.20;;;;;;;;;;4918274;29;20756;-80
2023/03/14 04:41:39;;;;;;;28.08;10.20;;;;;;;;;;4914979;29;20819;-82
2023/03/14 04:44:05;;;;;;;26.97;9.77;;;;;;;;;;4899410;29;20467;-82
2023/03/14 04:46:31;;;;;;;25.90;10.60;;;;;;;;;;4887645;29;20929;-82
2023/03/14 04:48:57;;;;;;;28.58;10.10;;;;;;;;;;4899494;29;20417;-82
2023/03/14 04:51:27;;;;;;;22.40;9.55;;;;;;;;;;4917540;29;20915;-82
2023/03/14 04:53:53;;;;;;;23.42;8.95;;;;;;;;;;4915678;29;20419;-82
2023/03/14 04:56:19;;;;;;;21.23;9.03;;;;;;;;;;4915115;29;20806;-82
2023/03/14 04:58:45;;;;;;;25.08;9.32;;;;;;;;;;4915197;29;20428;-82
2023/03/14 05:01:11;;;;;;;23.00;8.80;;;;;;;;;;4924958;29;20445;-82
2023/03/14 05:03:37;;;;;;;24.87;9.00;;;;;;;;;;4914842;29;20413;-81
2023/03/14 05:06:04;;;;;;;20.40;8.27;;;;;;;;;;4913065;29;20428;-82
2023/03/14 05:08:30;;;;;;;20.30;7.93;;;;;;;;;;4912696;29;20428;-82
2023/03/14 05:10:57;;;;;;;20.67;8.63;;;;;;;;;;4915579;29;20448;-82
2023/03/14 05:13:23;;;;;;;18.02;8.00;;;;;;;;;;4927780;29;20486;-82
2023/03/14 05:15:50;;;;;;;23.48;8.02;;;;;;;;;;4929331;29;20433;-82
2023/03/14 05:18:16;;;;;;;21.67;7.90;;;;;;;;;;4928399;29;20411;-81
2023/03/14 05:20:45;;;;;;;21.17;8.30;;;;;;;;;;4936927;29;20935;-82
2023/03/14 05:23:11;;;;;;;22.50;8.05;;;;;;;;;;4917180;29;20431;-81
2023/03/14 05:25:37;;;;;;;22.52;8.50;;;;;;;;;;4932376;29;20433;-80
2023/03/14 05:28:03;;;;;;;22.88;9.38;;;;;;;;;;4934632;29;20990;-80
2023/03/14 05:30:30;;;;;;;23.13;8.48;;;;;;;;;;4910270;29;20854;-79
2023/03/14 05:32:56;;;;;;;19.80;8.07;;;;;;;;;;4922577;29;20450;-79
2023/03/14 05:35:22;;;;;;;19.88;7.63;;;;;;;;;;4918466;29;20829;-78
2023/03/14 05:37:49;;;;;;;22.45;8.10;;;;;;;;;;4935781;29;20425;-78
2023/03/14 05:40:15;;;;;;;16.37;7.93;;;;;;;;;;4931938;29;20926;-79
2023/03/14 05:42:41;;;;;;;25.23;8.70;;;;;;;;;;4920988;29;20435;-78
2023/03/14 05:45:07;;;;;;;21.90;8.20;;;;;;;;;;4917984;29;20435;-78
2023/03/14 05:47:33;;;;;;;19.87;8.20;;;;;;;;;;4918446;29;20785;-78
2023/03/14 05:49:59;;;;;;;18.90;7.60;;;;;;;;;;4919411;29;20431;-77
2023/03/14 05:52:25;;;;;;;20.20;8.95;;;;;;;;;;4933401;29;20450;-78
2023/03/14 05:54:51;;;;;;;18.07;8.90;;;;;;;;;;4933276;29;20541;-78
2023/03/14 05:57:17;;;;;;;22.60;8.73;;;;;;;;;;4897071;29;20424;-79
2023/03/14 05:59:43;;;;;;;16.48;8.07;;;;;;;;;;4932820;29;20434;-79
2023/03/14 06:02:09;;;;;;;20.67;8.75;;;;;;;;;;4919417;29;20503;-80
2023/03/14 06:04:36;;;;;;;37.92;10.82;;;;;;;;;;4928729;29;20991;-79
2023/03/14 06:07:02;;;;;;;30.52;9.90;;;;;;;;;;4914444;29;20438;-80
2023/03/14 06:09:28;;;;;;;21.02;8.40;;;;;;;;;;4915744;29;20438;-79
2023/03/14 06:11:56;;;;;;;15.37;8.20;;;;;;;;;;4919212;29;20438;-79
2023/03/14 06:14:22;;;;;;;14.48;7.18;;;;;;;;;;4913339;29;20508;-81
2023/03/14 06:16:48;;;;;;;17.30;7.55;;;;;;;;;;4907870;29;20455;-80
2023/03/14 06:19:15;;;;;;;16.35;7.03;;;;;;;;;;4932435;29;20423;-79
2023/03/14 06:21:41;;;;;;;18.52;8.70;;;;;;;;;;4898809;29;21119;-81
2023/03/14 06:24:07;;;;;;;17.90;7.10;;;;;;;;;;4915542;29;20434;-81
2023/03/14 06:26:33;;;;;;;18.65;7.72;;;;;;;;;;4925956;29;20439;-81
2023/03/14 06:29:03;;;;;;;17.23;7.90;;;;;;;;;;4933019;29;20434;-79
2023/03/14 06:31:30;;;;;;;14.20;6.90;;;;;;;;;;4917841;29;20514;-78
2023/03/14 06:33:56;;;;;;;13.25;6.22;;;;;;;;;;4915642;29;20440;-78
2023/03/14 06:36:22;;;;;;;12.43;5.35;;;;;;;;;;4933657;29;20427;-78
2023/03/14 06:38:48;;;;;;;13.15;5.80;;;;;;;;;;4932783;29;20432;-78
2023/03/14 06:41:14;;;;;;;9.95;2.30;;;;;;;;;;4919562;29;20764;-78
2023/03/14 06:43:40;;;;;;;9.98;2.22;;;;;;;;;;4915710;29;20429;-79
2023/03/14 06:46:06;;;;;;;13.70;2.50;;;;;;;;;;4932839;29;20518;-78
2023/03/14 06:48:32;;;;;;;15.65;2.35;;;;;;;;;;4901807;29;20448;-79
2023/03/14 06:50:59;;;;;;;16.20;2.42;;;;;;;;;;4910138;29;20431;-79
2023/03/14 06:53:25;;;;;;;11.93;2.10;;;;;;;;;;4930533;29;20975;-79
2023/03/14 06:55:51;;;;;;;15.73;2.80;;;;;;;;;;4927132;29;20433;-79
2023/03/14 06:58:17;;;;;;;15.60;2.75;;;;;;;;;;4900164;29;20413;-79
2023/03/14 07:00:43;;;;;;;18.90;3.15;;;;;;;;;;4907092;29;20485;-79
2023/03/14 07:03:10;;;;;;;18.73;2.60;;;;;;;;;;4930868;29;20431;-79
2023/03/14 07:05:36;;;;;;;18.83;2.40;;;;;;;;;;4913089;29;20437;-78
2023/03/14 07:08:02;;;;;;;9.95;1.80;;;;;;;;;;4932603;29;20435;-78
2023/03/14 07:10:28;;;;;;;13.00;2.05;;;;;;;;;;4916465;29;21084;-78
2023/03/14 07:12:54;;;;;;;14.25;2.05;;;;;;;;;;4916595;29;20443;-78
2023/03/14 07:15:20;;;;;;;10.30;1.60;;;;;;;;;;4926372;29;20460;-78
2023/03/14 07:17:48;;;;;;;13.45;2.28;;;;;;;;;;4915701;29;20762;-78
2023/03/14 07:20:14;;;;;;;11.88;1.60;;;;;;;;;;4925718;29;20502;-78
2023/03/14 07:22:40;;;;;;;7.75;1.35;;;;;;;;;;4933097;29;20439;-79
2023/03/14 07:25:06;;;;;;;7.45;1.60;;;;;;;;;;4910099;29;20435;-78
2023/03/14 07:27:32;;;;;;;5.22;1.05;;;;;;;;;;4932459;29;20438;-78
2023/03/14 07:29:58;;;;;;;6.15;1.10;;;;;;;;;;4931958;29;20438;-78
2023/03/14 07:32:25;;;;;;;5.32;0.90;;;;;;;;;;4914156;29;20785;-78
2023/03/14 07:34:51;;;;;;;7.30;1.20;;;;;;;;;;4922230;29;20427;-78
2023/03/14 07:37:17;;;;;;;5.43;1.00;;;;;;;;;;4900408;29;20459;-80
2023/03/14 07:39:43;;;;;;;7.60;1.38;;;;;;;;;;4931951;29;20502;-79
2023/03/14 07:42:10;;;;;;;5.90;1.33;;;;;;;;;;4918708;29;20479;-78
2023/03/14 07:44:36;;;;;;;16.60;1.93;;;;;;;;;;4914198;29;20442;-83
2023/03/14 07:47:03;;;;;;;9.45;1.10;;;;;;;;;;4923415;29;20414;-83
2023/03/14 07:49:29;;;;;;;8.07;1.33;;;;;;;;;;4924255;29;20429;-83
2023/03/14 07:51:55;;;;;;;6.18;1.40;;;;;;;;;;4918436;29;20862;-81
2023/03/14 07:54:21;;;;;;;8.30;1.70;;;;;;;;;;4906712;29;20764;-82
2023/03/14 07:56:47;;;;;;;7.80;1.20;;;;;;;;;;4909847;29;20423;-81
2023/03/14 07:59:13;;;;;;;6.45;1.23;;;;;;;;;;4909815;29;20425;-82
2023/03/14 08:01:39;;;;;;;7.05;1.30;;;;;;;;;;4927192;29;20450;-81
2023/03/14 08:04:05;;;;;;;9.98;1.63;;;;;;;;;;4915674;29;20442;-80
2023/03/14 08:06:31;;;;;;;10.27;1.45;;;;;;;;;;4913814;29;20460;-81
2023/03/14 08:08:57;;;;;;;7.93;1.25;;;;;;;;;;4902597;29;20831;-81
2023/03/14 08:11:23;;;;;;;7.03;1.48;;;;;;;;;;4900269;29;20435;-80
2023/03/14 08:13:50;;;;;;;9.02;1.35;;;;;;;;;;4924666;29;21003;-80
2023/03/14 08:16:17;;;;;;;8.52;1.50;;;;;;;;;;4912656;29;20911;-82
2023/03/14 08:18:43;;;;;;;6.28;1.45;;;;;;;;;;4913792;29;20460;-80
2023/03/14 08:21:09;;;;;;;10.27;1.50;;;;;;;;;;4917362;29;20489;-81
2023/03/14 08:23:35;;;;;;;12.23;1.88;;;;;;;;;;4916601;29;20431;-80
2023/03/14 08:26:02;;;;;;;9.80;1.63;;;;;;;;;;4909979;29;20549;-81
2023/03/14 08:28:30;;;;;;;8.32;1.30;;;;;;;;;;4889756;29;20885;-81
2023/03/14 08:30:57;;;;;;;9.45;1.70;;;;;;;;;;4926987;29;20438;-82
2023/03/14 08:33:23;;;;;;;10.05;1.50;;;;;;;;;;4910801;29;20495;-81
2023/03/14 08:35:52;;;;;;;5.93;1.23;;;;;;;;;;4920079;29;20850;-81
2023/03/14 08:38:18;;;;;;;9.15;1.52;;;;;;;;;;4911437;29;20423;-81
2023/03/14 08:40:44;;;;;;;9.93;1.70;;;;;;;;;;4912488;29;20439;-81
2023/03/14 08:43:10;;;;;;;12.27;1.98;;;;;;;;;;4899749;29;20441;-81
2023/03/14 08:45:36;;;;;;;8.85;1.90;;;;;;;;;;4929872;29;20435;-81
2023/03/14 08:48:02;;;;;;;10.40;1.80;;;;;;;;;;4941901;28;20719;-80
2023/03/14 08:50:29;;;;;;;9.23;1.80;;;;;;;;;;4915951;29;20523;-81
2023/03/14 08:52:55;;;;;;;6.95;1.85;;;;;;;;;;4919986;29;20435;-81
2023/03/14 08:55:21;;;;;;;10.85;2.17;;;;;;;;;;4934892;29;20438;-81
2023/03/14 08:57:47;;;;;;;11.73;2.35;;;;;;;;;;4903819;29;20423;-81
2023/03/14 09:00:15;;;;;;;14.10;2.10;;;;;;;;;;4902709;29;20450;-80
2023/03/14 09:02:41;;;;;;;9.63;2.20;;;;;;;;;;4907857;29;20443;-81
2023/03/14 09:05:08;;;;;;;18.58;3.10;;;;;;;;;;4933598;29;20435;-81
2023/03/14 09:07:36;;;;;;;16.58;2.65;;;;;;;;;;4919867;29;20878;-81
2023/03/14 09:10:02;;;;;;;15.38;2.60;;;;;;;;;;4934284;29;20517;-81
2023/03/14 09:12:28;;;;;;;16.38;3.13;;;;;;;;;;4920106;29;20436;-81
2023/03/14 09:14:54;;;;;;;12.57;3.00;;;;;;;;;;4915801;29;20460;-81
2023/03/14 09:17:20;;;;;;;15.15;3.03;;;;;;;;;;4933019;29;20431;-82
2023/03/14 09:19:46;;;;;;;17.13;3.10;;;;;;;;;;4902421;29;20801;-82
2023/03/14 09:22:13;;;;;;;18.67;3.57;;;;;;;;;;4931273;29;20446;-82
2023/03/14 09:24:40;;;;;;;22.35;4.18;;;;;;;;;;4935264;29;20920;-82
2023/03/14 09:27:07;;;;;;;21.73;4.10;;;;;;;;;;4934068;29;20438;-80
2023/03/14 09:29:35;;;;;;;20.27;3.78;;;;;;;;;;4917890;29;20461;-81
2023/03/14 09:32:01;;;;;;;24.47;3.70;;;;;;;;;;4930243;29;20438;-78
2023/03/14 09:34:28;;;;;;;22.40;3.50;;;;;;;;;;4918420;29;20429;-80
2023/03/14 09:36:54;;;;;;;15.07;3.25;;;;;;;;;;4932247;29;20533;-81
2023/03/14 09:39:20;;;;;;;16.15;2.67;;;;;;;;;;4917096;29;20423;-81
2023/03/14 09:41:51;;;;;;;17.90;2.90;;;;;;;;;;4917684;29;20579;-81
2023/03/14 09:44:31;;;;;;;16.90;3.30;;;;;;;;;;4913033;29;20786;-81
2023/03/14 09:46:58;;;;;;;18.35;3.75;;;;;;;;;;4915077;29;20451;-79
2023/03/14 09:49:24;;;;;;;16.80;3.57;;;;;;;;;;4913278;29;20442;-81
2023/03/14 09:51:53;;;;;;;21.02;4.00;;;;;;;;;;4927346;29;20947;-81
2023/03/14 09:54:27;;;;;;;21.13;3.70;;;;;;;;;;4929636;29;20519;-81
2023/03/14 09:56:54;;;;;;;20.17;3.90;;;;;;;;;;4930764;29;20429;-81
2023/03/14 09:59:21;;;;;;;19.20;3.90;;;;;;;;;;4898503;29;20460;-82
2023/03/14 10:01:47;;;;;;;21.95;4.15;;;;;;;;;;4918142;29;20781;-82
2023/03/14 10:04:17;;;;;;;20.55;4.43;;;;;;;;;;4909505;29;20438;-82
2023/03/14 10:06:43;;;;;;;22.92;4.10;;;;;;;;;;4933163;29;20840;-82
2023/03/14 10:09:16;;;;;;;19.90;4.38;;;;;;;;;;4933205;29;20427;-82
2023/03/14 10:11:42;;;;;;;21.40;3.77;;;;;;;;;;4920226;29;20474;-82
2023/03/14 10:14:10;;;;;;;17.83;3.58;;;;;;;;;;4900802;29;20781;-82
2023/03/14 10:16:37;;;;;;;22.92;4.03;;;;;;;;;;4928848;29;20413;-81
2023/03/14 10:19:05;;;;;;;19.30;4.10;;;;;;;;;;4923202;29;20435;-81
2023/03/14 10:21:33;;;;;;;18.83;3.50;;;;;;;;;;4911000;29;20435;-82
2023/03/14 10:24:09;;;;;;;18.77;4.03;;;;;;;;;;4930612;29;20466;-81
2023/03/14 10:26:35;;;;;;;17.58;3.70;;;;;;;;;;4933691;29;20427;-81
2023/03/14 10:29:04;;;;;;;14.30;3.88;;;;;;;;;;4913832;29;20431;-81
2023/03/14 10:31:46;;;;;;;20.27;3.70;;;;;;;;;;4930916;29;20509;-81
2023/03/14 10:34:17;;;;;;;16.20;3.03;;;;;;;;;;4921819;29;20489;-82
2023/03/14 10:36:43;;;;;;;14.98;3.38;;;;;;;;;;4934616;29;20446;-82
2023/03/14 10:39:18;;;;;;;14.18;2.97;;;;;;;;;;4929090;29;20425;-82
2023/03/14 10:41:48;;;;;;;18.63;3.20;;;;;;;;;;4903089;29;22388;-82
2023/03/14 10:44:17;;;;;;;16.30;3.47;;;;;;;;;;4896984;29;20459;-82
2023/03/14 10:46:43;;;;;;;12.00;2.75;;;;;;;;;;4913404;29;20508;-82
2023/03/14 10:49:23;;;;;;;15.25;3.13;;;;;;;;;;4909877;29;20751;-83
2023/03/14 10:51:49;;;;;;;14.05;3.17;;;;;;;;;;4914624;29;20526;-82
2023/03/14 10:54:24;;;;;;;14.43;2.95;;;;;;;;;;4917782;29;20432;-83
2023/03/14 10:57:01;;;;;;;14.98;3.42;;;;;;;;;;4910763;29;20569;-82
2023/03/14 10:59:34;;;;;;;12.02;2.40;;;;;;;;;;4918574;29;20435;-84
2023/03/14 11:02:11;;;;;;;11.57;2.50;;;;;;;;;;4932870;29;20514;-83
2023/03/14 11:04:40;;;;;;;10.50;2.42;;;;;;;;;;4922357;29;20912;-83
2023/03/14 11:07:06;;;;;;;9.70;2.47;;;;;;;;;;4903490;29;20437;-84
2023/03/14 11:09:41;;;;;;;8.77;2.72;;;;;;;;;;4904682;29;20421;-83
2023/03/14 11:12:46;;;;;;;8.70;2.30;;;;;;;;;;4916725;29;20443;-83
2023/03/14 11:15:16;;;;;;;8.50;2.47;;;;;;;;;;4930395;29;20781;-84
2023/03/14 11:17:46;;;;;;;13.10;2.30;;;;;;;;;;4917384;29;20784;-83
2023/03/14 11:20:27;;;;;;;11.45;2.42;;;;;;;;;;4934044;29;20441;-84
2023/03/14 11:23:00;;;;;;;8.98;2.30;;;;;;;;;;4934549;29;20424;-84
2023/03/14 11:25:26;;;;;;;10.13;2.30;;;;;;;;;;4905079;29;20417;-84
2023/03/14 11:27:59;;;;;;;13.57;2.55;;;;;;;;;;4917496;29;20921;-84
2023/03/14 11:30:44;;;;;;;10.15;2.25;;;;;;;;;;4906467;29;20436;-84
2023/03/14 11:33:10;;;;;;;10.05;2.22;;;;;;;;;;4916973;29;20999;-84
2023/03/14 11:35:40;;;;;;;8.82;2.00;;;;;;;;;;4930268;29;20495;-83
2023/03/14 12:07:26;;;;;;;6.88;2.15;;;;;;;;;;5345668;23;20930;-86
2023/03/14 12:09:53;;;;;;;7.72;1.90;;;;;;;;;;5340118;23;20447;-85
2023/03/14 12:12:43;;;;;;;8.20;2.15;;;;;;;;;;5692030;23;20449;31
2023/03/14 12:29:22;;;;;;;6.80;2.10;;;;;;;;;;5320542;23;20437;-82
2023/03/14 12:32:01;;;;;;;8.88;2.00;;;;;;;;;;5674709;23;20409;31
2023/03/14 12:34:28;;;;;;;13.25;2.72;;;;;;;;;;4687044;24;20479;-85
2023/03/14 12:37:14;;;;;;;8.23;2.15;;;;;;;;;;4894407;29;20438;-85
2023/03/14 12:39:43;;;;;;;8.30;1.98;;;;;;;;;;4869793;29;20470;-85
2023/03/14 12:42:40;;;;;;;7.15;1.85;;;7.20;99.90;;;;;;4880527;29;20943;-86
2023/03/14 12:45:15;;;;;;;8.77;1.92;;;;;;;;;;4863177;29;20438;-84
2023/03/14 12:47:45;;;;;;;8.07;1.80;;;;;;;;;;4896287;29;20638;-84
2023/03/14 12:50:16;;;;;;;8.48;1.90;;;;;;;;;;4866783;29;20438;-83
2023/03/14 12:52:53;;;;;;;7.78;2.20;;;;;;;;;;4864481;29;20518;-84
2023/03/14 12:55:22;;;;;;;10.63;2.08;;;;;;;;;;4869589;29;20434;-83
2023/03/14 12:58:10;;;;;;;11.43;2.20;;;;;;;;;;4880414;29;20419;-85
2023/03/14 13:00:40;;;;;;;8.03;2.20;;;;;;;;;;4880585;29;20479;-85
2023/03/14 13:03:16;;;;;;;7.28;1.90;;;;;;;;;;4881253;29;20522;-85
2023/03/14 13:05:58;;;;;;;5.90;1.80;;;;;;;;;;4871504;29;20546;-86
2023/03/14 13:08:36;;;;;;;7.87;1.80;;;;;;;;;;4880125;29;20418;-85
2023/03/14 13:11:03;;;;;;;6.68;1.73;;;;;;;;;;4861287;29;20476;-84
2023/03/14 13:13:29;;;;;;;9.15;1.90;;;;;;;;;;4875146;29;20439;-86
2023/03/14 13:15:58;;;;;;;9.48;2.13;;;;;;;;;;4870830;29;20482;-85
2023/03/14 13:18:27;;;;;;;8.07;1.70;;;;;;;;;;4871772;29;20571;-85
2023/03/14 13:20:55;;;;;;;6.53;1.50;;;;;;;;;;4860284;29;20786;-86
2023/03/14 13:23:22;;;;;;;6.53;1.65;;;;;;;;;;4845429;29;20428;-86
2023/03/14 13:25:48;;;;;;;5.28;1.80;;;;;;;;;;4851558;29;21327;-85
2023/03/14 13:28:14;;;;;;;6.28;1.60;;;;;;;;;;4860743;29;20913;-86
2023/03/14 13:30:42;;;;;;;7.50;1.58;;;;;;;;;;4861424;29;20442;-86
2023/03/14 13:33:12;;;;;;;5.82;1.50;;;;;;;;;;4861069;29;20968;-86
2023/03/14 13:35:44;;;;;;;8.15;1.90;;;;;;;;;;4866514;29;20490;-85
2023/03/14 13:38:15;;;;;;;7.65;2.17;;;;;;;;;;4874600;29;20493;-86
2023/03/14 13:40:43;;;;;;;9.35;1.92;;;;;;;;;;4873554;29;20439;-86
2023/03/14 13:43:20;;;;;;;7.50;1.80;;;;;;;;;;4865778;29;20519;-87
2023/03/14 13:45:51;;;;;;;10.25;2.15;;;;;;;;;;4872252;29;20435;-86
2023/03/14 13:48:21;;;;;;;7.65;1.90;;;;;;;;;;4880172;29;20452;-85
2023/03/14 13:50:52;;;;;;;8.88;1.90;;;;;;;;;;4864451;29;20447;-85
2023/03/14 13:53:24;;;;;;;6.88;1.80;;;;;;;;;;4863201;29;20436;-85
2023/03/14 13:55:53;;;;;;;9.30;2.20;;;;;;;;;;4880445;29;20526;-85
2023/03/14 13:58:43;;;;;;;7.93;1.83;;;;;;;;;;4866507;29;20426;-84
2023/03/14 14:04:39;;;;;;;8.50;1.65;;;;;;;;;;4821502;29;20815;-84
2023/03/14 14:07:38;;;;;;;7.10;1.60;;;;;;;;;;4843197;29;20989;-84
2023/03/14 14:10:33;;;;;;;9.38;2.00;;;;;;;;;;4836327;29;20517;-84
2023/03/14 14:13:29;;;;;;;7.20;1.60;;;;;;;;;;4844658;29;20529;-84
2023/03/14 14:16:03;;;;;;;8.95;1.85;;;;;;;;;;4832978;29;20446;-84
2023/03/14 14:18:42;;;;;;;11.73;2.28;;;;;;;;;;4826302;29;20442;-84
2023/03/14 14:21:28;;;;;;;9.00;2.00;;;;;;;;;;4818745;29;20459;-84
2023/03/14 14:24:04;;;;;;;11.43;2.30;;;;;;;;;;4824906;29;20438;-84
2023/03/14 14:26:33;;;;;;;11.13;1.83;;;;;;;;;;4824925;29;20449;-82
2023/03/14 14:29:06;;;;;;;7.43;1.83;;;;;;;;;;4844049;29;20628;-82
2023/03/14 14:31:32;;;;;;;11.57;2.17;;;;;;;;;;4836458;29;20620;-83
2023/03/14 14:33:59;;;;;;;12.95;2.17;;;;;;;;;;4880778;29;20445;-85
2023/03/14 14:36:35;;;;;;;10.05;2.17;;;;;;;;;;4882238;29;20953;-87
2023/03/14 14:39:07;;;;;;;12.23;2.15;;;;;;;;;;4898947;29;20502;-83
2023/03/14 14:41:35;;;;;;;10.63;1.80;;;;;;;;;;4865948;29;20419;-84
2023/03/14 14:44:04;;;;;;;10.73;1.90;;;;;;;;;;4879995;29;20451;-85
2023/03/14 14:46:32;;;;;;;7.82;1.98;;;;;;;;;;4865062;29;20434;-85
2023/03/14 14:49:03;;;;;;;7.03;1.63;;;;;;;;;;4863480;29;20433;-84
2023/03/14 14:51:32;;;;;;;8.98;1.70;;;;;;;;;;4865948;29;20434;-83
2023/03/14 14:54:03;;;;;;;7.13;1.60;;;;;;;;;;4862108;29;20435;-84
2023/03/14 14:56:35;;;;;;;5.57;1.50;;;;;;;;;;4857828;29;20488;-85
2023/03/14 14:59:04;;;;;;;7.03;1.80;;;;;;;;;;4866180;29;20541;-86
2023/03/14 15:01:40;;;;;;;7.63;1.63;;;;;;;;;;4865719;29;20566;-86
2023/03/14 15:04:30;;;;;;;7.70;1.42;;;;;;;;;;4869381;29;20457;-85
2023/03/14 15:07:07;;;;;;;9.32;2.33;;;;;;;;;;4867476;29;20445;-84
2023/03/14 15:09:36;;;;;;;8.98;1.50;;;;;;;;;;4864225;29;20899;-85
2023/03/14 15:12:10;;;;;;;8.40;1.67;;;;;;;;;;4866329;29;20439;-85
2023/03/14 15:14:39;;;;;;;10.52;1.90;;;;;;;;;;4865795;29;20442;-85
2023/03/14 15:17:09;;;;;;;10.40;2.33;;;;;;;;;;4876165;29;20518;-84
2023/03/14 15:19:35;;;;;;;7.90;1.80;;;;;;;;;;4861078;29;20454;-85
2023/03/14 15:22:03;;;;;;;8.07;1.53;;;;;;;;;;4862440;29;20430;-87
2023/03/14 15:24:29;;;;;;;9.43;1.83;;;;;;;;;;4858895;29;20502;-85
2023/03/14 15:27:10;;;;;;;7.65;1.65;;;;;;;;;;4864871;29;20440;-84
2023/03/14 15:29:37;;;;;;;10.40;2.00;;;;;;;;;;4869656;29;20438;-85
2023/03/14 15:32:06;;;;;;;6.22;1.80;;;;;;;;;;4864724;29;21090;-85
2023/03/14 15:34:51;;;;;;;7.72;1.80;;;;;;;;;;4860384;29;20452;-86
2023/03/14 15:37:28;;;;;;;10.00;1.92;;;;;;;;;;4847233;29;20440;-87
2023/03/14 15:40:13;;;;;;;12.25;2.55;;;;;;;;;;4869866;29;20502;-86